createdAt,value
2023-01-06T00:03:42.356Z,96.85
2023-01-06T00:08:50.614Z,96.93
2023-01-06T00:13:56.626Z,96.64
2023-01-06T00:19:02.938Z,96.38
2023-01-06T00:24:09.981Z,96.52
2023-01-06T00:29:15.966Z,96.37
2023-01-06T00:34:21.984Z,96.33
2023-01-06T00:39:27.766Z,96.64
2023-01-06T00:44:34.695Z,96.67
2023-01-06T00:49:40.477Z,96.91
2023-01-06T00:54:46.469Z,96.66
2023-01-06T00:59:53.583Z,96.58
2023-01-06T01:04:59.184Z,96.67
2023-01-06T01:10:06.235Z,96.81
2023-01-06T01:15:12.717Z,96.96
2023-01-06T01:20:19.534Z,96.88
2023-01-06T01:25:25.219Z,96.61
2023-01-06T01:30:31.084Z,96.44
2023-01-06T01:35:36.871Z,96.41
2023-01-06T01:40:48.982Z,96.29
2023-01-06T01:45:55.813Z,96.29
2023-01-06T01:51:05.736Z,96.48
2023-01-06T01:56:17.128Z,96.41
2023-01-06T02:01:23.322Z,96.35
2023-01-06T02:06:30.422Z,95.88
2023-01-06T02:11:38.070Z,96.02
2023-01-06T02:17:01.002Z,96.38
2023-01-06T02:22:25.815Z,96.20
2023-01-06T02:27:47.998Z,96.20
2023-01-06T02:33:06.045Z,96.24
2023-01-06T02:38:23.614Z,96.08
2023-01-06T02:43:45.356Z,95.87
2023-01-06T02:50:29.369Z,96.19
2023-01-06T02:55:42.566Z,95.98
2023-01-06T03:00:53.612Z,96.02
2023-01-06T03:06:04.941Z,95.86
2023-01-06T03:11:11.609Z,95.79
2023-01-06T03:16:18.195Z,95.35
2023-01-06T03:21:26.783Z,94.91
2023-01-06T03:26:33.290Z,94.24
2023-01-06T03:31:47.883Z,93.87
2023-01-06T03:37:03.729Z,93.74
2023-01-06T03:42:40.814Z,93.76
2023-01-06T03:47:56.872Z,93.43
2023-01-06T03:53:16.216Z,93.56
2023-01-06T03:58:24.608Z,93.51
2023-01-06T04:03:31.456Z,93.63
2023-01-06T04:08:37.358Z,93.81
2023-01-06T04:13:43.489Z,93.73
2023-01-06T04:18:49.715Z,93.52
2023-01-06T04:23:56.654Z,93.52
2023-01-06T04:29:03.488Z,93.62
2023-01-06T04:34:09.336Z,93.77
2023-01-06T04:39:15.121Z,93.86
2023-01-06T04:44:21.028Z,93.65
2023-01-06T04:49:27.048Z,93.54
2023-01-06T04:54:32.750Z,93.19
2023-01-06T04:59:38.393Z,92.81
2023-01-06T05:04:47.966Z,92.72
2023-01-06T05:09:54.394Z,91.94
2023-01-06T05:15:00.186Z,92.02
2023-01-06T05:20:07.512Z,92.14
2023-01-06T05:25:13.303Z,92.22
2023-01-06T05:30:19.556Z,92.06
2023-01-06T05:35:25.288Z,92.03
2023-01-06T05:40:31.062Z,92.18
2023-01-06T05:45:38.528Z,92.19
2023-01-06T05:50:44.625Z,91.93
2023-01-06T05:55:50.796Z,91.77
2023-01-06T06:00:56.930Z,91.87
2023-01-06T06:06:05.889Z,91.54
2023-01-06T06:11:14.357Z,91.36
2023-01-06T06:16:23.438Z,91.71
2023-01-06T06:21:30.873Z,92.20
2023-01-06T06:26:37.214Z,92.41
2023-01-06T06:31:44.239Z,92.37
2023-01-06T06:36:50.109Z,92.49
2023-01-06T06:41:56.017Z,92.46
2023-01-06T06:47:01.834Z,92.22
2023-01-06T06:52:07.933Z,91.86
2023-01-06T06:57:13.825Z,92.12
2023-01-06T07:02:19.912Z,92.23
2023-01-06T07:07:26.132Z,92.30
2023-01-06T07:12:31.918Z,92.33
2023-01-06T07:17:37.986Z,92.24
2023-01-06T07:22:44.579Z,92.03
2023-01-06T07:27:55.564Z,91.89
2023-01-06T07:33:00.252Z,91.84
2023-01-06T07:38:07.746Z,91.84
2023-01-06T07:43:13.820Z,92.03
2023-01-06T07:48:20.843Z,92.18
2023-01-06T07:53:27.035Z,92.24
2023-01-06T07:58:33.000Z,92.21
2023-01-06T08:03:38.989Z,92.00
2023-01-06T08:08:44.779Z,91.76
2023-01-06T08:13:50.623Z,91.24
2023-01-06T08:18:56.616Z,90.83
2023-01-06T08:24:02.568Z,90.58
2023-01-06T08:29:08.619Z,90.70
2023-01-06T08:34:14.662Z,91.04
2023-01-06T08:39:20.443Z,90.95
2023-01-06T08:44:27.055Z,90.84
2023-01-06T08:49:36.046Z,90.31
2023-01-06T08:54:42.068Z,89.92
2023-01-06T08:59:48.019Z,89.92
2023-01-06T09:04:53.987Z,90.13
2023-01-06T09:09:59.934Z,90.36
2023-01-06T09:15:06.859Z,90.20
2023-01-06T09:20:13.103Z,90.10
2023-01-06T09:25:21.168Z,89.43
2023-01-06T09:30:26.854Z,89.42
2023-01-06T09:35:32.581Z,89.14
2023-01-06T09:40:50.394Z,88.83
2023-01-06T09:46:06.994Z,88.79
2023-01-06T09:51:21.223Z,88.47
2023-01-06T09:56:25.861Z,88.40
2023-01-06T10:01:41.426Z,88.07
2023-01-06T10:06:53.827Z,88.48
2023-01-06T10:12:13.436Z,88.31
2023-01-06T10:17:36.869Z,88.14
2023-01-06T10:22:51.021Z,88.45
2023-01-06T10:28:02.194Z,88.17
2023-01-06T10:33:14.721Z,88.22
2023-01-06T10:38:27.362Z,87.98
2023-01-06T10:43:33.136Z,87.97
2023-01-06T10:48:40.855Z,87.90
2023-01-06T10:53:47.054Z,88.04
2023-01-06T10:58:57.605Z,88.28
2023-01-06T11:04:15.488Z,88.21
2023-01-06T11:09:32.594Z,88.36
2023-01-06T11:14:39.695Z,88.22
2023-01-06T11:19:46.770Z,87.64
2023-01-06T11:24:55.431Z,87.77
2023-01-06T11:30:25.614Z,87.49
2023-01-06T11:35:34.012Z,87.40
2023-01-06T11:40:39.648Z,87.46
2023-01-06T11:45:49.273Z,87.54
2023-01-06T11:50:57.572Z,87.08
2023-01-06T11:56:06.256Z,86.40
2023-01-06T12:01:20.712Z,86.00
2023-01-06T12:06:32.984Z,85.93
2023-01-06T12:11:45.560Z,85.53
2023-01-06T12:17:06.983Z,85.67
2023-01-06T12:22:22.009Z,85.54
2023-01-06T12:27:34.240Z,85.87
2023-01-06T12:32:45.446Z,86.44
2023-01-06T12:37:52.256Z,86.49
2023-01-06T12:43:05.094Z,86.72
2023-01-06T12:48:21.211Z,86.27
2023-01-06T12:53:31.504Z,86.30
2023-01-06T12:58:46.909Z,86.26
2023-01-06T13:04:15.089Z,86.68
2023-01-06T13:09:40.261Z,86.68
2023-01-06T13:14:55.668Z,86.86
2023-01-06T13:20:06.176Z,87.14
2023-01-06T13:25:29.424Z,87.26
2023-01-06T13:30:55.956Z,87.25
2023-01-06T13:36:18.540Z,87.22
2023-01-06T13:41:26.655Z,86.85
2023-01-06T13:46:34.761Z,86.89
2023-01-06T13:51:44.399Z,87.25
2023-01-06T13:57:24.729Z,87.32
2023-01-06T14:03:14.335Z,87.20
2023-01-06T14:08:23.875Z,87.26
2023-01-06T14:13:38.955Z,87.58
2023-01-06T14:18:51.288Z,87.81
2023-01-06T14:24:00.937Z,88.04
2023-01-06T14:29:38.014Z,87.96
2023-01-06T14:34:50.377Z,88.29
2023-01-06T14:39:59.228Z,88.07
2023-01-06T14:45:17.725Z,88.14
2023-01-06T14:50:34.797Z,88.50
2023-01-06T14:55:52.773Z,88.51
2023-01-06T15:01:00.138Z,88.69
2023-01-06T15:06:18.415Z,88.60
2023-01-06T15:11:29.641Z,88.86
2023-01-06T15:16:38.073Z,88.83
2023-01-06T15:21:47.031Z,88.86
2023-01-06T15:26:55.252Z,88.76
2023-01-06T15:32:02.258Z,88.90
2023-01-06T15:37:17.528Z,89.14
2023-01-06T15:42:25.860Z,89.38
2023-01-06T15:47:35.159Z,89.40
2023-01-06T15:52:47.686Z,89.38
2023-01-06T15:57:58.533Z,89.58
2023-01-06T16:03:06.397Z,89.78
2023-01-06T16:08:22.850Z,89.77
2023-01-06T16:13:30.024Z,89.72
2023-01-06T16:18:37.846Z,89.89
2023-01-06T16:23:47.623Z,90.16
2023-01-06T16:28:55.934Z,90.22
2023-01-06T16:34:25.000Z,90.32
2023-01-06T16:39:31.038Z,90.27
2023-01-06T16:44:37.101Z,90.42
2023-01-06T16:49:42.808Z,90.44
2023-01-06T16:54:54.126Z,90.57
2023-01-06T17:00:03.104Z,90.99
2023-01-06T17:05:20.601Z,91.62
2023-01-06T17:10:27.018Z,91.85
2023-01-06T17:15:33.231Z,92.45
2023-01-06T17:20:38.895Z,93.09
2023-01-06T17:25:46.063Z,93.71
2023-01-06T17:30:52.561Z,94.12
2023-01-06T17:36:00.127Z,94.63
2023-01-06T17:41:11.458Z,95.14
2023-01-06T17:46:23.655Z,95.98
2023-01-06T17:51:29.715Z,96.69
2023-01-06T17:56:35.616Z,97.50
2023-01-06T18:01:41.744Z,98.01
2023-01-06T18:06:52.752Z,98.34
2023-01-06T18:12:02.968Z,98.83
2023-01-06T18:17:22.139Z,99.52
2023-01-06T18:22:29.773Z,99.95
2023-01-06T18:27:36.965Z,100.00
2023-01-06T18:32:43.811Z,100.00
2023-01-06T18:37:52.625Z,100.00
2023-01-06T18:42:59.310Z,100.00
2023-01-06T18:48:27.105Z,100.00
2023-01-06T18:53:38.051Z,100.00
2023-01-06T18:58:47.469Z,100.00
2023-01-06T19:04:02.810Z,100.00
2023-01-06T19:09:27.705Z,100.00
2023-01-06T19:14:36.370Z,100.00
2023-01-06T19:19:43.596Z,100.00
2023-01-06T19:24:57.742Z,100.00
2023-01-06T19:30:37.583Z,100.00
2023-01-06T19:35:43.569Z,100.00
2023-01-06T19:40:49.442Z,100.00
2023-01-06T19:45:55.709Z,100.00
2023-01-06T19:51:16.454Z,100.00
2023-01-06T19:56:24.201Z,100.00
2023-01-06T20:01:33.427Z,100.00
2023-01-06T20:06:39.104Z,100.00
2023-01-06T20:11:45.286Z,100.00
2023-01-06T20:16:51.380Z,100.00
2023-01-06T20:21:57.119Z,100.00
2023-01-06T20:27:02.800Z,100.00
2023-01-06T20:32:09.384Z,100.00
2023-01-06T20:37:15.360Z,100.00
2023-01-06T20:42:21.751Z,100.00
2023-01-06T20:47:27.758Z,100.00
2023-01-06T20:52:33.581Z,100.00
2023-01-06T20:57:39.501Z,100.00
2023-01-06T21:02:45.462Z,100.00
2023-01-06T21:07:51.520Z,100.00
2023-01-06T21:12:58.539Z,100.00
2023-01-06T21:18:04.426Z,100.00
2023-01-06T21:23:10.339Z,100.00
2023-01-06T21:28:16.467Z,100.00
2023-01-06T21:33:22.435Z,100.00
2023-01-06T21:38:28.152Z,100.00
2023-01-06T21:43:33.765Z,100.00
2023-01-06T21:48:39.634Z,100.00
2023-01-06T21:53:46.044Z,100.00
2023-01-06T21:58:51.810Z,100.00
2023-01-06T22:03:57.516Z,100.00
2023-01-06T22:09:05.622Z,100.00
2023-01-06T22:14:13.376Z,100.00
2023-01-06T22:19:19.822Z,100.00
2023-01-06T22:24:26.067Z,100.00
2023-01-06T22:29:32.012Z,100.00
2023-01-06T22:34:38.082Z,100.00
2023-01-06T22:39:45.551Z,100.00
2023-01-06T22:44:51.362Z,100.00
2023-01-06T22:49:57.852Z,100.00
2023-01-06T22:55:04.153Z,100.00
2023-01-06T23:00:15.941Z,100.00
2023-01-06T23:05:21.755Z,100.00
2023-01-06T23:10:27.683Z,100.00
2023-01-06T23:15:33.583Z,100.00
2023-01-06T23:20:39.252Z,100.00
2023-01-06T23:25:46.908Z,100.00
2023-01-06T23:30:52.871Z,100.00
2023-01-06T23:36:02.533Z,100.00
2023-01-06T23:41:10.873Z,100.00
2023-01-06T23:46:19.413Z,100.00
2023-01-06T23:51:26.317Z,100.00
2023-01-06T23:56:33.885Z,100.00
